Time;durP1;ratioP1;P1;durP2;ratioP2;P2;SDS_P1;SDS_P2;PMS_P1;PMS_P2;Temp;Humidity;BMP_temperature;BMP_pressure;BME280_temperature;BME280_humidity;BME280_pressure;Samples;Min_cycle;Max_cycle;Signal;HPM_P1;HPM_P2
2022/03/09 00:01:30;;;;;;;11.07;5.95;;;;;;;6.06;35.62;102134.81;4989552;28;123948;-61
2022/03/09 00:03:59;;;;;;;12.32;6.05;;;;;;;6.03;35.39;102141.84;4993043;28;124747;-61
2022/03/09 00:06:27;;;;;;;13.45;6.05;;;;;;;6.00;35.46;102136.59;4991041;28;114754;-61
2022/03/09 00:08:55;;;;;;;12.52;6.40;;;;;;;5.98;35.57;102143.59;4992430;28;113541;-62
2022/03/09 00:11:26;;;;;;;13.70;6.65;;;;;;;5.95;35.55;102143.66;4989845;28;124392;-62
2022/03/09 00:13:53;;;;;;;11.82;6.20;;;;;;;5.92;35.65;102148.00;4991797;28;123537;-62
2022/03/09 00:16:20;;;;;;;11.48;6.03;;;;;;;5.90;35.88;102145.38;4992171;28;113560;-62
2022/03/09 00:18:48;;;;;;;11.55;5.78;;;;;;;5.89;35.91;102148.88;4991212;28;114177;-61
2022/03/09 00:21:15;;;;;;;12.20;6.00;;;;;;;5.86;35.88;102148.91;4990370;28;124070;-61
2022/03/09 00:23:43;;;;;;;12.45;5.90;;;;;;;5.84;35.89;102154.16;4991858;28;123744;-62
2022/03/09 00:26:11;;;;;;;13.35;6.35;;;;;;;5.81;35.83;102155.94;4991048;28;115107;-62
2022/03/09 00:28:39;;;;;;;12.60;6.35;;;;;;;5.77;35.89;102148.94;4990850;28;115214;-62
2022/03/09 00:31:07;;;;;;;14.35;6.55;;;;;;;5.74;35.80;102154.19;4990949;28;124302;-62
2022/03/09 00:33:35;;;;;;;11.70;6.18;;;;;;;5.71;36.31;102146.31;4992183;28;123948;-62
2022/03/09 00:36:02;;;;;;;12.88;6.35;;;;;;;5.69;36.16;102145.44;4990444;28;114574;-62
2022/03/09 00:38:33;;;;;;;11.88;5.68;;;;;;;5.69;36.35;102145.44;4993687;28;114652;-62
2022/03/09 00:41:02;;;;;;;10.45;5.55;;;;;;;5.70;36.33;102153.34;4989822;28;125240;-62
2022/03/09 00:43:29;;;;;;;14.40;5.70;;;;;;;5.71;36.23;102146.31;4992525;28;123730;-62
2022/03/09 00:45:57;;;;;;;10.93;5.47;;;;;;;5.73;36.35;102144.59;4990396;28;114088;-62
2022/03/09 00:48:24;;;;;;;15.25;6.18;;;;;;;5.74;36.48;102148.94;4990239;28;114293;-62
2022/03/09 00:50:52;;;;;;;12.63;6.20;;;;;;;5.77;36.26;102143.69;4988971;28;124439;-62
2022/03/09 00:53:19;;;;;;;12.75;6.55;;;;;;;5.80;36.34;102148.91;4990018;28;124319;-62
2022/03/09 00:55:47;;;;;;;12.10;6.10;;;;;;;5.80;36.24;102149.81;4992246;28;113446;-62
2022/03/09 00:58:14;;;;;;;13.13;6.03;;;;;;;5.80;36.29;102143.66;4990286;28;114142;-62
2022/03/09 01:00:41;;;;;;;11.63;5.80;;;;;;;5.79;36.33;102141.94;4990588;28;124048;-62
2022/03/09 01:03:08;;;;;;;13.60;5.78;;;;;;;5.80;36.18;102139.28;4991092;28;123786;-62
2022/03/09 01:05:36;;;;;;;10.82;6.30;;;;;;;5.77;36.19;102139.28;4992088;28;113324;-62
2022/03/09 01:08:03;;;;;;;11.55;5.72;;;;;;;5.76;36.20;102136.66;4990101;28;114072;-62
2022/03/09 01:10:30;;;;;;;12.88;6.25;;;;;;;5.75;36.32;102142.81;4987159;28;124408;-62
2022/03/09 01:12:59;;;;;;;12.48;6.57;;;;;;;5.72;36.19;102151.56;4990820;28;124190;-62
2022/03/09 01:15:26;;;;;;;13.45;6.25;;;;;;;5.71;36.06;102159.47;4989409;28;115204;-62
2022/03/09 01:17:53;;;;;;;15.23;6.40;;;;;;;5.69;36.09;102151.59;4989878;28;114917;-62
2022/03/09 01:20:20;;;;;;;12.05;6.38;;;;;;;5.66;36.34;102147.22;4988728;28;124102;-61
2022/03/09 01:22:47;;;;;;;16.08;6.57;;;;;;;5.63;36.33;102142.00;4990170;28;124409;-62
2022/03/09 01:25:14;;;;;;;11.57;6.00;;;;;;;5.60;36.49;102142.00;4988420;28;114072;-62
2022/03/09 01:27:41;;;;;;;11.15;5.85;;;;;;;5.56;36.39;102145.50;4989355;28;113831;-61
2022/03/09 01:30:10;;;;;;;13.40;6.07;;;;;;;5.53;36.64;102145.50;4987271;28;124026;-61
2022/03/09 01:32:38;;;;;;;13.15;6.38;;;;;;;5.50;36.66;102144.63;4990238;28;123932;-61
2022/03/09 01:35:05;;;;;;;11.77;5.95;;;;;;;5.47;36.68;102145.53;4989707;28;114282;-62
2022/03/09 01:37:33;;;;;;;10.98;5.78;;;;;;;5.44;36.73;102135.03;4989638;28;114137;-62
2022/03/09 01:40:00;;;;;;;13.27;6.60;;;;;;;5.41;36.67;102133.28;4988010;28;123808;-61
2022/03/09 01:42:27;;;;;;;13.15;6.45;;;;;;;5.41;36.74;102135.06;4988420;28;123797;-62
2022/03/09 01:45:01;;;;;;;14.50;6.47;;;;;;;5.40;36.77;102138.53;4991491;28;115016;-61
2022/03/09 01:47:28;;;;;;;14.05;6.25;;;;;;;5.39;36.62;102131.56;4990610;28;112916;-61
2022/03/09 01:49:55;;;;;;;11.32;6.85;;;;;;;5.36;36.66;102137.69;4988765;28;123989;-61
2022/03/09 01:52:23;;;;;;;12.60;6.05;;;;;;;5.33;36.93;102121.94;4989893;28;123725;-61
2022/03/09 01:54:52;;;;;;;11.98;6.13;;;;;;;5.30;36.81;102126.31;4990667;28;115055;-61
2022/03/09 01:57:20;;;;;;;13.52;6.55;;;;;;;5.28;36.75;102112.31;4994856;28;113880;-61
2022/03/09 01:59:50;;;;;;;11.40;6.68;;;;;;;5.26;36.88;102114.94;4990616;28;124100;-61
2022/03/09 02:02:18;;;;;;;12.30;6.38;;;;;;;5.24;37.03;102112.31;4991362;28;123987;-62
2022/03/09 02:04:46;;;;;;;13.18;6.15;;;;;;;5.25;36.84;102113.19;4989535;28;115207;-62
2022/03/09 02:07:14;;;;;;;12.60;6.18;;;;;;;5.24;37.08;102117.56;4989104;28;114751;-62
2022/03/09 02:09:41;;;;;;;13.00;6.65;;;;;;;5.24;37.01;102107.06;4988316;28;124449;-62
2022/03/09 02:12:11;;;;;;;13.52;7.00;;;;;;;5.22;37.06;102119.34;4990494;28;123853;-62
2022/03/09 02:14:44;;;;;;;12.65;6.90;;;;;;;5.20;37.17;102115.84;4992041;28;115248;-61
2022/03/09 02:17:21;;;;;;;10.43;5.75;;;;;;;5.18;37.22;102114.06;4990997;28;113155;-61
2022/03/09 02:19:49;;;;;;;12.93;6.45;;;;;;;5.17;37.02;102110.59;4989167;28;124075;-61
2022/03/09 02:22:19;;;;;;;11.20;6.70;;;;;;;5.16;36.98;102110.56;4987864;28;123749;-62
2022/03/09 02:24:48;;;;;;;12.30;6.78;;;;;;;5.16;37.30;102114.09;4988790;28;114095;-62
2022/03/09 02:27:16;;;;;;;11.63;6.53;;;;;;;5.13;37.12;102114.09;4991701;28;113432;-62
2022/03/09 02:29:43;;;;;;;16.80;7.07;;;;;;;5.11;37.08;102126.34;4988037;28;123850;-62
2022/03/09 02:32:11;;;;;;;12.98;6.10;;;;;;;5.10;37.38;102124.59;4988524;28;123844;-61
2022/03/09 02:34:39;;;;;;;12.00;6.35;;;;;;;5.08;37.22;102121.09;4988759;28;114363;-62
2022/03/09 02:37:07;;;;;;;14.68;6.72;;;;;;;5.06;37.23;102128.09;4990262;28;113284;-62
2022/03/09 02:39:34;;;;;;;14.88;6.60;;;;;;;5.04;37.21;102122.84;4990615;28;123862;-61
2022/03/09 02:42:02;;;;;;;13.65;6.70;;;;;;;5.02;37.34;102126.38;4987711;28;124555;-61
2022/03/09 02:44:29;;;;;;;13.88;6.30;;;;;;;5.00;37.44;102118.47;4988376;28;114966;-61
2022/03/09 02:46:57;;;;;;;12.93;7.10;;;;;;;4.97;37.38;102117.63;4990364;28;114254;-61
2022/03/09 02:49:24;;;;;;;13.30;6.97;;;;;;;4.93;37.30;102121.13;4989963;28;124198;-61
2022/03/09 02:51:52;;;;;;;14.52;6.88;;;;;;;4.92;37.29;102124.63;4988575;28;123954;-61
2022/03/09 02:54:19;;;;;;;14.27;7.07;;;;;;;4.87;37.35;102116.75;4990488;28;115895;-61
2022/03/09 02:56:46;;;;;;;13.23;7.00;;;;;;;4.84;37.42;102112.41;4989279;28;114891;-62
2022/03/09 02:59:13;;;;;;;10.93;6.30;;;;;;;4.78;37.54;102106.25;4989003;28;123912;-62
2022/03/09 03:01:41;;;;;;;11.77;6.70;;;;;;;4.73;37.56;102098.41;4987313;28;123957;-62
2022/03/09 03:04:08;;;;;;;13.48;6.32;;;;;;;4.68;37.49;102100.16;4991209;28;114601;-62
2022/03/09 03:06:35;;;;;;;15.68;6.90;;;;;;;4.63;37.58;102107.13;4988261;28;113668;-62
2022/03/09 03:09:02;;;;;;;17.02;6.85;;;;;;;4.61;37.61;102103.63;4986934;28;124774;-61
2022/03/09 03:11:30;;;;;;;12.40;6.65;;;;;;;4.58;37.72;102103.66;4988248;28;123987;-62
2022/03/09 03:13:57;;;;;;;11.85;6.18;;;;;;;4.56;37.88;102094.88;4990519;28;114536;-62
2022/03/09 03:16:24;;;;;;;15.02;7.05;;;;;;;4.54;37.72;102094.91;4988025;28;114162;-61
2022/03/09 03:18:52;;;;;;;13.30;6.30;;;;;;;4.54;37.91;102096.63;4987534;28;124831;-62
2022/03/09 03:21:19;;;;;;;15.90;6.95;;;;;;;4.54;37.85;102091.38;4989624;28;123837;-61
2022/03/09 03:23:48;;;;;;;15.63;6.47;;;;;;;4.55;37.91;102093.16;4989794;28;113113;-61
2022/03/09 03:26:15;;;;;;;13.70;6.88;;;;;;;4.56;37.77;102089.63;4989356;28;114221;-61
2022/03/09 03:28:42;;;;;;;16.92;6.85;;;;;;;4.58;37.96;102103.66;4989255;28;123916;-61
2022/03/09 03:31:09;;;;;;;13.18;6.28;;;;;;;4.58;38.06;102101.03;4988939;28;123039;-61
2022/03/09 03:33:36;;;;;;;13.98;6.68;;;;;;;4.59;37.99;102098.38;4999211;28;114209;-61
2022/03/09 03:36:04;;;;;;;14.55;6.78;;;;;;;4.60;37.99;102101.91;5011575;28;113842;-61
2022/03/09 03:38:31;;;;;;;11.88;6.53;;;;;;;4.58;37.88;102099.28;5009827;28;124516;-61
2022/03/09 03:40:58;;;;;;;13.30;6.53;;;;;;;4.58;37.92;102095.78;5010452;28;123739;-61
2022/03/09 03:43:26;;;;;;;14.07;6.43;;;;;;;4.57;38.22;102096.66;5012682;28;115331;-61
2022/03/09 03:45:54;;;;;;;12.15;6.32;;;;;;;4.56;37.98;102100.13;5011334;28;115393;-61
2022/03/09 03:48:21;;;;;;;13.05;6.22;;;;;;;4.56;38.13;102098.41;5013713;28;123765;-61
2022/03/09 03:50:48;;;;;;;15.02;6.60;;;;;;;4.55;37.96;102098.41;5012139;28;123453;-61
2022/03/09 03:53:15;;;;;;;14.80;6.88;;;;;;;4.54;38.19;102096.63;5012369;28;114542;-61
2022/03/09 03:55:44;;;;;;;16.88;6.35;;;;;;;4.49;37.97;102100.13;5012710;28;114699;-61
2022/03/09 03:58:11;;;;;;;13.50;6.35;;;;;;;4.46;38.07;102094.91;5010691;28;123860;-61
2022/03/09 04:00:38;;;;;;;12.32;6.10;;;;;;;4.44;38.25;102096.63;5010305;28;123716;-61
2022/03/09 04:03:06;;;;;;;15.02;7.25;;;;;;;4.40;38.24;102089.63;5012154;28;113930;-60
2022/03/09 04:05:34;;;;;;;13.80;6.75;;;;;;;4.36;38.11;102090.50;5009613;28;114533;-61
2022/03/09 04:08:01;;;;;;;12.77;6.57;;;;;;;4.32;38.06;102096.63;5012083;28;123108;-61
2022/03/09 04:10:28;;;;;;;14.93;6.65;;;;;;;4.28;38.30;102094.88;5009791;28;123776;-61
2022/03/09 04:13:00;;;;;;;16.00;6.60;;;;;;;4.26;38.22;102101.88;5010678;28;114477;-61
2022/03/09 04:15:27;;;;;;;12.75;6.38;;;;;;;4.21;38.28;102103.63;5010680;28;114685;-60
2022/03/09 04:17:54;;;;;;;14.45;6.13;;;;;;;4.17;38.31;102104.47;5012445;28;123135;-60
2022/03/09 04:20:21;;;;;;;14.23;6.68;;;;;;;4.14;38.28;102101.84;5008437;28;124024;-61
2022/03/09 04:22:49;;;;;;;12.93;6.75;;;;;;;4.09;38.28;102104.47;5010569;28;114381;-60
2022/03/09 04:25:16;;;;;;;15.38;7.10;;;;;;;4.04;38.65;102107.06;5010808;28;113908;-60
2022/03/09 04:27:43;;;;;;;14.48;6.95;;;;;;;4.00;38.49;102110.56;5010246;28;123972;-60
2022/03/09 04:30:11;;;;;;;13.52;6.65;;;;;;;3.95;38.52;102114.91;5012645;28;124833;-60
2022/03/09 04:32:38;;;;;;;12.02;6.47;;;;;;;3.90;38.46;102120.16;5010523;28;115295;-60
2022/03/09 04:35:08;;;;;;;12.77;6.25;;;;;;;3.84;38.56;102114.00;5011740;28;115209;-61
2022/03/09 04:37:36;;;;;;;13.50;6.60;;;;;;;3.79;38.56;102118.38;5010292;28;124589;-60
2022/03/09 04:40:05;;;;;;;14.55;6.80;;;;;;;3.74;38.59;102112.22;5011825;28;124729;-60
2022/03/09 04:42:33;;;;;;;13.15;6.43;;;;;;;3.70;38.69;102117.44;5010791;28;114363;-60
2022/03/09 04:45:01;;;;;;;14.35;6.78;;;;;;;3.67;38.94;102114.81;5010157;28;114159;-61
2022/03/09 04:47:28;;;;;;;13.60;6.47;;;;;;;3.64;38.73;102117.44;5010102;28;124679;-60
2022/03/09 04:49:55;;;;;;;13.27;6.55;;;;;;;3.63;38.91;102109.56;5009889;28;125109;-60
2022/03/09 04:52:22;;;;;;;13.13;6.78;;;;;;;3.62;38.90;102113.94;5012055;28;114689;-60
2022/03/09 04:54:50;;;;;;;12.60;6.63;;;;;;;3.62;38.89;102119.16;5011563;28;113056;-60
2022/03/09 04:57:17;;;;;;;14.40;6.15;;;;;;;3.60;38.82;102115.66;5012391;28;123692;-60
2022/03/09 04:59:45;;;;;;;14.18;6.38;;;;;;;3.58;38.93;102112.16;5009193;28;124604;-60
2022/03/09 05:02:14;;;;;;;15.23;6.55;;;;;;;3.55;38.75;102116.50;5011169;28;115841;-60
2022/03/09 05:04:41;;;;;;;12.02;6.00;;;;;;;3.52;38.73;102127.84;5012262;28;113155;-61
2022/03/09 05:07:08;;;;;;;13.88;6.75;;;;;;;3.49;38.88;102119.97;5009751;28;123937;-60
2022/03/09 05:09:35;;;;;;;12.55;5.93;;;;;;;3.48;39.05;102121.72;5009567;28;123915;-61
2022/03/09 05:12:03;;;;;;;13.43;6.72;;;;;;;3.48;39.07;102115.59;5010624;28;114832;-60
2022/03/09 05:14:32;;;;;;;14.57;6.72;;;;;;;3.48;39.08;102110.34;5010196;28;114150;-60
2022/03/09 05:17:00;;;;;;;16.30;6.65;;;;;;;3.48;39.01;102120.84;5011564;28;123533;-60
2022/03/09 05:19:27;;;;;;;14.23;6.78;;;;;;;3.47;39.16;102113.88;5011383;28;123006;-61
2022/03/09 05:21:55;;;;;;;14.00;6.78;;;;;;;3.47;39.19;102113.88;5011194;28;116025;-61
2022/03/09 05:24:39;;;;;;;14.40;6.80;;;;;;;3.45;39.20;102111.22;5009766;28;115022;-60
2022/03/09 05:27:06;;;;;;;12.00;6.13;;;;;;;3.44;39.26;102113.84;5011386;28;122957;-61
2022/03/09 05:29:33;;;;;;;14.40;6.63;;;;;;;3.44;39.27;102119.06;5010715;28;123786;-61
2022/03/09 05:32:00;;;;;;;13.25;6.20;;;;;;;3.42;39.37;102115.56;5011349;28;115496;-61
2022/03/09 05:34:27;;;;;;;12.88;6.18;;;;;;;3.41;39.19;102129.53;5009589;28;114425;-61
2022/03/09 05:36:54;;;;;;;13.50;6.53;;;;;;;3.42;39.39;102128.66;5009410;28;123995;-61
2022/03/09 05:39:22;;;;;;;12.15;5.38;;;;;;;3.40;39.37;102127.78;4995011;28;122950;-60
2022/03/09 05:41:50;;;;;;;11.73;5.97;;;;;;;3.38;39.29;102129.53;5008757;28;114110;-61
2022/03/09 05:44:17;;;;;;;11.75;6.00;;;;;;;3.34;39.32;102127.75;5012573;28;114670;-61
2022/03/09 05:46:44;;;;;;;11.02;5.70;;;;;;;3.33;39.46;102136.47;5008669;28;124378;-61
2022/03/09 05:49:12;;;;;;;14.95;5.65;;;;;;;3.31;39.55;102129.50;5009061;28;124120;-61
2022/03/09 05:51:39;;;;;;;13.30;6.50;;;;;;;3.30;39.52;102132.97;5008915;28;114332;-60
2022/03/09 05:54:06;;;;;;;15.23;6.03;;;;;;;3.28;39.47;102139.94;5011239;28;114395;-61
2022/03/09 05:56:36;;;;;;;13.27;6.15;;;;;;;3.28;39.73;102145.19;5007855;28;123923;-60
2022/03/09 05:59:03;;;;;;;12.77;6.07;;;;;;;3.29;39.46;102146.91;5010148;28;123850;-60
2022/03/09 06:01:31;;;;;;;12.48;5.68;;;;;;;3.28;39.55;102150.41;5010277;28;115345;-60
2022/03/09 06:03:58;;;;;;;16.55;6.38;;;;;;;3.27;39.56;102156.50;5010376;28;114845;-61
2022/03/09 06:06:25;;;;;;;13.75;6.10;;;;;;;3.25;39.66;102150.38;5009972;28;125639;-61
2022/03/09 06:08:52;;;;;;;11.25;5.80;;;;;;;3.25;39.64;102155.63;5008837;28;124794;-60
2022/03/09 06:11:20;;;;;;;12.50;5.70;;;;;;;3.25;39.56;102158.25;5007983;28;115751;-61
2022/03/09 06:13:50;;;;;;;14.15;5.68;;;;;;;3.25;39.75;102160.84;5011417;28;114949;-61
2022/03/09 06:16:17;;;;;;;12.05;5.70;;;;;;;3.24;39.65;102159.13;5009702;28;123990;-61
2022/03/09 06:18:47;;;;;;;13.88;5.95;;;;;;;3.23;39.65;102162.59;5008678;28;123815;-61
2022/03/09 06:21:15;;;;;;;14.70;6.25;;;;;;;3.22;39.77;102160.84;5009571;28;115062;-61
2022/03/09 06:23:42;;;;;;;14.40;6.28;;;;;;;3.20;39.71;102157.34;5010853;28;114278;-61
2022/03/09 06:26:10;;;;;;;15.15;6.45;;;;;;;3.18;39.82;102164.28;5009517;28;123836;-60
2022/03/09 06:28:37;;;;;;;15.32;6.60;;;;;;;3.18;39.80;102161.66;5011369;28;123873;-60
2022/03/09 06:31:04;;;;;;;12.25;6.28;;;;;;;3.19;39.88;102166.06;5008381;28;114660;-61
2022/03/09 06:33:31;;;;;;;16.70;6.28;;;;;;;3.18;39.89;102161.66;5010680;28;113256;-62
2022/03/09 06:35:58;;;;;;;15.07;6.75;;;;;;;3.19;40.02;102160.81;5008016;28;124288;-62
2022/03/09 06:38:26;;;;;;;14.30;6.00;;;;;;;3.20;40.02;102167.81;5008285;28;123901;-59
2022/03/09 06:40:57;;;;;;;12.43;6.40;;;;;;;3.21;40.23;102169.56;5008093;28;114120;-60
2022/03/09 06:43:24;;;;;;;15.48;6.57;;;;;;;3.23;40.14;102177.44;5010341;28;114156;-60
2022/03/09 06:45:52;;;;;;;14.45;5.88;;;;;;;3.25;39.99;102181.81;5008994;28;124703;-61
2022/03/09 06:48:19;;;;;;;15.23;5.88;;;;;;;3.27;40.22;102185.31;5009506;28;123808;-60
2022/03/09 06:50:46;;;;;;;11.57;5.70;;;;;;;3.30;40.29;102179.22;5009659;28;114429;-61
2022/03/09 06:53:16;;;;;;;11.20;6.30;;;;;;;3.35;40.47;102181.88;4994470;28;113286;-61
2022/03/09 06:55:43;;;;;;;13.90;5.82;;;;;;;3.41;40.30;102187.13;4993220;28;123048;-60
2022/03/09 06:58:12;;;;;;;14.30;6.22;;;;;;;3.50;40.52;102192.44;5009320;28;122806;-61
2022/03/09 07:00:39;;;;;;;11.57;6.57;;;;;;;3.62;40.30;102192.50;5006118;28;115042;-61
2022/03/09 07:03:06;;;;;;;18.70;6.45;;;;;;;3.77;40.87;102196.06;5009697;28;115866;-60
2022/03/09 07:05:35;;;;;;;13.07;6.20;;;;;;;3.94;40.84;102194.41;5008022;28;124100;-61
2022/03/09 07:08:02;;;;;;;11.15;6.28;;;;;;;4.10;41.10;102190.97;5010313;28;124197;-60
2022/03/09 07:10:29;;;;;;;16.17;6.72;;;;;;;4.28;41.02;102195.41;5011026;28;114338;-61
2022/03/09 07:12:58;;;;;;;13.00;6.78;;;;;;;4.45;41.10;102198.06;5012933;28;114361;-61
2022/03/09 07:15:30;;;;;;;9.68;5.78;;;;;;;4.65;41.05;102199.84;5011655;28;124298;-62
2022/03/09 07:17:57;;;;;;;12.50;6.43;;;;;;;4.84;41.19;102201.63;5011839;28;124598;-62
2022/03/09 07:20:25;;;;;;;12.98;6.15;;;;;;;5.03;41.11;102201.66;5013048;28;113926;-62
2022/03/09 07:22:53;;;;;;;11.68;6.32;;;;;;;5.20;40.79;102213.00;5014046;28;113988;-62
2022/03/09 07:25:21;;;;;;;12.05;6.47;;;;;;;5.34;40.87;102212.13;5010810;28;124259;-62
2022/03/09 07:27:48;;;;;;;15.13;6.57;;;;;;;5.46;40.85;102212.09;5012451;28;125058;-62
2022/03/09 07:30:15;;;;;;;14.73;6.82;;;;;;;5.56;40.66;102219.09;5012869;28;113800;-62
2022/03/09 07:32:43;;;;;;;13.60;6.78;;;;;;;5.66;40.77;102220.81;5013253;28;113888;-62
2022/03/09 07:35:20;;;;;;;14.82;6.57;;;;;;;5.77;40.88;102222.56;5013817;28;124705;-62
2022/03/09 07:37:50;;;;;;;13.63;6.68;;;;;;;5.89;40.72;102227.75;5011299;28;123924;-62
2022/03/09 07:40:19;;;;;;;11.23;6.22;;;;;;;6.01;40.87;102222.50;5012750;28;113822;-62
2022/03/09 07:42:46;;;;;;;14.15;6.65;;;;;;;6.15;40.89;102218.94;5013154;28;114046;-62
2022/03/09 07:45:13;;;;;;;12.65;6.47;;;;;;;6.28;40.90;102223.25;5011225;28;123805;-62
2022/03/09 07:47:40;;;;;;;11.50;6.72;;;;;;;6.41;40.64;102222.31;5013682;28;124709;-63
2022/03/09 07:50:08;;;;;;;13.63;6.75;;;;;;;6.54;40.77;102227.50;5013125;28;115362;-63
2022/03/09 07:52:36;;;;;;;12.32;6.30;;;;;;;6.61;40.47;102223.94;5011743;28;115466;-63
2022/03/09 07:55:07;;;;;;;17.25;6.88;;;;;;;6.70;40.44;102215.97;5012761;28;124836;-63
2022/03/09 07:57:36;;;;;;;11.63;6.40;;;;;;;6.78;40.48;102219.44;5013130;28;124149;-63
2022/03/09 08:00:06;;;;;;;12.35;6.65;;;;;;;6.88;40.31;102224.66;5010483;28;114283;-63
2022/03/09 08:02:40;;;;;;;10.73;6.43;;;;;;;6.96;40.33;102220.19;5014329;28;114708;-63
2022/03/09 08:05:11;;;;;;;12.15;6.25;;;;;;;7.00;40.43;102221.91;5013052;28;123083;-63
2022/03/09 08:07:38;;;;;;;11.63;6.05;;;;;;;7.04;40.21;102223.63;5012493;28;124946;-63
2022/03/09 08:10:09;;;;;;;11.32;6.10;;;;;;;7.07;40.12;102228.88;5012383;28;114906;-63
2022/03/09 08:12:36;;;;;;;12.57;6.50;;;;;;;7.12;39.89;102224.47;5012889;28;113335;-63
2022/03/09 08:15:04;;;;;;;11.77;6.35;;;;;;;7.18;39.97;102226.16;5012677;28;124548;-63
2022/03/09 08:17:31;;;;;;;12.85;6.22;;;;;;;7.24;39.92;102225.25;5011145;28;124008;-63
2022/03/09 08:19:58;;;;;;;13.27;5.88;;;;;;;7.30;40.05;102219.91;5011161;28;114228;-63
2022/03/09 08:22:26;;;;;;;11.80;5.90;;;;;;;7.37;40.03;102226.88;5012135;28;114141;-63
2022/03/09 08:24:53;;;;;;;12.35;5.80;;;;;;;7.45;39.82;102218.91;5010476;28;124716;-63
2022/03/09 08:27:20;;;;;;;10.63;5.88;;;;;;;7.50;39.77;102227.63;5012890;28;124512;-63
2022/03/09 08:29:48;;;;;;;14.40;6.03;;;;;;;7.56;39.69;102230.22;5010089;28;114279;-63
2022/03/09 08:32:18;;;;;;;12.07;5.60;;;;;;;7.64;39.67;102230.13;5011817;28;114842;-63
2022/03/09 08:34:46;;;;;;;11.90;5.50;;;;;;;7.73;39.75;102235.31;5012237;28;123198;-63
2022/03/09 08:37:15;;;;;;;11.57;5.70;;;;;;;7.82;39.60;102240.47;5010170;28;124272;-63
2022/03/09 08:39:45;;;;;;;12.73;5.90;;;;;;;7.93;39.35;102235.97;5009550;28;116106;-64
2022/03/09 08:42:16;;;;;;;11.18;5.57;;;;;;;8.04;39.51;102240.22;5013272;28;114777;-63
2022/03/09 08:44:43;;;;;;;11.35;5.43;;;;;;;8.13;39.60;102238.34;5011032;28;124423;-63
2022/03/09 08:47:10;;;;;;;11.68;5.32;;;;;;;8.25;39.40;102244.34;5011603;28;123782;-63
2022/03/09 08:49:39;;;;;;;12.23;6.00;;;;;;;8.37;38.95;102234.50;5011002;28;114830;-61
2022/03/09 08:52:08;;;;;;;9.23;5.43;;;;;;;8.52;39.29;102232.59;5011966;28;113245;-61
2022/03/09 08:54:36;;;;;;;10.38;5.85;;;;;;;8.65;39.22;102222.75;5009990;28;125450;-61
2022/03/09 08:57:04;;;;;;;13.77;5.70;;;;;;;8.80;39.03;102218.97;5010960;28;124271;-61
2022/03/09 08:59:32;;;;;;;9.32;5.20;;;;;;;8.90;38.70;102218.81;5010166;28;114399;-61
2022/03/09 09:01:59;;;;;;;11.05;5.40;;;;;;;9.03;38.42;102219.50;5011519;28;113036;-61
2022/03/09 09:04:27;;;;;;;9.98;5.47;;;;;;;9.16;38.36;102215.75;5009414;28;123875;-61
2022/03/09 09:06:54;;;;;;;10.75;5.60;;;;;;;9.30;38.26;102217.28;5012576;28;124186;-61
2022/03/09 09:09:24;;;;;;;11.68;5.65;;;;;;;9.45;38.49;102227.56;5010190;28;114392;-61
2022/03/09 09:11:54;;;;;;;10.43;5.53;;;;;;;9.59;38.52;102218.50;5010194;28;114323;-62
2022/03/09 09:14:21;;;;;;;9.93;5.68;;;;;;;9.73;38.23;102216.47;5012940;28;124395;-62
2022/03/09 09:16:48;;;;;;;13.98;6.07;;;;;;;9.83;37.90;102223.34;5011455;28;123749;-61
2022/03/09 09:19:16;;;;;;;12.38;5.80;;;;;;;9.96;37.80;102228.38;5012336;28;114101;-62
2022/03/09 09:21:45;;;;;;;9.95;5.75;;;;;;;10.09;37.65;102225.44;5009399;28;114326;-61
2022/03/09 09:24:13;;;;;;;10.52;5.57;;;;;;;10.24;37.52;102226.03;5010995;28;122900;-61
2022/03/09 09:26:44;;;;;;;10.20;5.68;;;;;;;10.41;37.58;102231.00;5010957;28;122645;-61
2022/03/09 09:29:18;;;;;;;10.13;5.53;;;;;;;10.57;37.38;102226.22;5011208;28;115353;-61
2022/03/09 09:31:47;;;;;;;10.95;5.93;;;;;;;10.68;37.15;102225.09;5010851;28;114805;-62
2022/03/09 09:34:15;;;;;;;13.10;6.13;;;;;;;10.79;36.97;102223.94;5011817;28;124770;-61
2022/03/09 09:36:46;;;;;;;13.07;5.80;;;;;;;10.90;37.03;102224.56;5009329;28;124583;-61
2022/03/09 09:39:15;;;;;;;10.73;6.00;;;;;;;11.02;36.58;102229.59;5009631;28;114158;-62
2022/03/09 09:41:46;;;;;;;12.63;5.88;;;;;;;11.13;36.63;102236.38;5011137;28;112972;-61
2022/03/09 09:44:14;;;;;;;10.00;5.78;;;;;;;11.20;36.34;102232.69;5012042;28;124752;-61
2022/03/09 09:46:43;;;;;;;10.27;5.57;;;;;;;11.29;36.25;102227.13;5012130;28;124063;-61
2022/03/09 09:49:13;;;;;;;11.02;5.82;;;;;;;11.37;36.20;102232.25;5009565;28;114196;-62
2022/03/09 09:51:43;;;;;;;11.57;5.88;;;;;;;11.49;36.22;102229.28;5009998;28;114009;-61
2022/03/09 09:54:13;;;;;;;13.77;6.25;;;;;;;11.62;36.17;102219.19;5011499;28;125854;-61
2022/03/09 09:56:41;;;;;;;11.80;6.57;;;;;;;11.70;35.75;102217.22;5010945;28;123728;-61
2022/03/09 09:59:09;;;;;;;11.68;6.53;;;;;;;11.80;35.74;102213.38;5012030;28;114097;-61
2022/03/09 10:01:38;;;;;;;11.57;6.32;;;;;;;11.90;35.72;102213.16;5009378;28;114237;-61
2022/03/09 10:04:07;;;;;;;12.70;6.32;;;;;;;11.97;35.61;102204.97;5011596;28;124002;-61
2022/03/09 10:06:37;;;;;;;10.50;6.25;;;;;;;12.09;35.74;102209.03;5010511;28;124092;-61
2022/03/09 10:09:14;;;;;;;12.00;6.22;;;;;;;12.21;35.54;102208.69;5007919;28;114975;-63
2022/03/09 10:11:51;;;;;;;12.43;6.53;;;;;;;12.33;35.37;102207.44;5008806;28;113605;-63
2022/03/09 10:14:38;;;;;;;11.90;6.40;;;;;;;12.47;35.39;102209.69;5011683;28;124783;-63
2022/03/09 10:17:32;;;;;;;11.25;6.50;;;;;;;12.56;35.13;102209.38;5010491;28;124686;-63
2022/03/09 10:20:08;;;;;;;11.20;6.45;;;;;;;12.66;34.88;102221.47;5010682;28;115050;-63
2022/03/09 10:22:37;;;;;;;;;;;;;;;12.73;35.31;102226.59;5009924;28;114942;-63
2022/03/09 10:25:23;;;;;;;12.60;6.32;;;;;;;12.81;35.09;102219.25;5010110;28;123881;-62
2022/03/09 10:28:12;;;;;;;12.02;6.22;;;;;;;12.91;34.88;102215.34;5010974;28;124071;-62
2022/03/09 10:30:41;;;;;;;11.90;6.82;;;;;;;12.99;34.93;102213.31;5010026;28;113058;-62
2022/03/09 10:33:11;;;;;;;11.88;6.55;;;;;;;13.11;34.69;102211.16;5009976;28;113818;-62
2022/03/09 10:35:40;;;;;;;13.23;7.22;;;;;;;13.18;34.38;102208.22;5008561;28;124524;-62
2022/03/09 10:38:21;;;;;;;10.77;6.45;;;;;;;13.26;34.54;102213.31;5010398;28;122959;-62
2022/03/09 10:40:51;;;;;;;12.00;6.82;;;;;;;13.36;34.50;102206.78;5010868;28;114140;-62
2022/03/09 10:43:21;;;;;;;11.95;7.25;;;;;;;13.49;34.40;102211.69;5009091;28;114683;-62
2022/03/09 10:46:05;;;;;;;15.43;7.07;;;;;;;13.60;34.18;102204.19;5008827;28;124321;-63
2022/03/09 10:48:52;;;;;;;11.70;6.53;;;;;;;13.71;34.03;102207.34;5010259;28;123956;-63
2022/03/09 10:51:35;;;;;;;13.07;7.00;;;;;;;13.82;34.11;102198.94;5010585;28;114600;-63
2022/03/09 10:54:23;;;;;;;14.27;7.10;;;;;;;13.93;34.04;102201.19;5010959;28;113737;-63
2022/03/09 10:57:04;;;;;;;13.43;6.97;;;;;;;14.01;33.92;102204.44;5008346;28;124104;-63
2022/03/09 10:59:48;;;;;;;13.85;7.13;;;;;;;14.12;33.92;102196.91;5008132;28;124499;-62
2022/03/09 11:02:21;;;;;;;14.57;7.15;;;;;;;14.23;33.88;102193.84;5008219;28;114266;-62
2022/03/09 11:05:14;;;;;;;13.73;7.22;;;;;;;14.36;33.70;102184.44;5010492;28;116467;-63
2022/03/09 11:07:42;;;;;;;15.25;7.32;;;;;;;14.49;33.27;102190.16;5010415;28;124258;-63
2022/03/09 11:10:12;;;;;;;16.52;8.20;;;;;;;14.56;33.23;102185.41;5009106;28;122897;-63
2022/03/09 11:12:39;;;;;;;13.95;7.35;;;;;;;14.62;32.99;102184.34;5008542;28;115143;-63
2022/03/09 11:15:07;;;;;;;13.65;7.55;;;;;;;14.69;33.24;102185.84;5009645;28;115726;-63
2022/03/09 11:17:35;;;;;;;15.30;7.40;;;;;;;14.74;32.95;102189.19;5007828;28;124131;-63
2022/03/09 11:20:03;;;;;;;14.77;8.20;;;;;;;14.82;32.74;102189.72;5007024;28;123816;-62
2022/03/09 11:22:30;;;;;;;14.63;7.88;;;;;;;14.88;32.78;102181.50;5010447;28;113870;-63
2022/03/09 11:24:58;;;;;;;14.30;7.60;;;;;;;14.95;32.61;102182.94;5011256;28;113867;-63